createdAt,value
2022-11-18T00:01:23.320Z,64.90
2022-11-18T00:03:52.300Z,64.13
2022-11-18T00:06:24.358Z,63.75
2022-11-18T00:08:55.492Z,60.42
2022-11-18T00:11:44.532Z,70.38
2022-11-18T00:14:20.736Z,63.80
2022-11-18T00:17:02.926Z,70.50
2022-11-18T00:19:39.749Z,66.47
2022-11-18T00:22:12.499Z,64.72
2022-11-18T00:24:39.796Z,68.75
2022-11-18T00:27:06.990Z,68.35
2022-11-18T00:29:34.139Z,70.30
2022-11-18T00:32:01.762Z,72.50
2022-11-18T00:34:29.024Z,74.10
2022-11-18T00:36:56.265Z,74.43
2022-11-18T00:39:23.611Z,75.40
2022-11-18T00:42:09.856Z,70.03
2022-11-18T00:44:37.153Z,66.20
2022-11-18T00:47:05.143Z,66.63
2022-11-18T00:49:32.493Z,62.97
2022-11-18T00:51:59.828Z,59.15
2022-11-18T00:54:27.015Z,62.60
2022-11-18T00:56:54.320Z,58.35
2022-11-18T00:59:21.781Z,60.75
2022-11-18T01:01:49.331Z,69.72
2022-11-18T01:04:17.205Z,66.80
2022-11-18T01:06:44.513Z,70.40
2022-11-18T01:09:11.730Z,63.80
2022-11-18T01:11:57.685Z,64.85
2022-11-18T01:14:26.223Z,64.65
2022-11-18T01:16:57.838Z,58.75
2022-11-18T01:19:26.091Z,61.63
2022-11-18T01:21:53.884Z,67.88
2022-11-18T01:24:21.260Z,57.90
2022-11-18T01:26:48.657Z,56.03
2022-11-18T01:29:17.423Z,55.42
2022-11-18T01:32:02.074Z,54.60
2022-11-18T01:34:32.280Z,57.08
2022-11-18T01:36:59.545Z,55.20
2022-11-18T01:39:26.783Z,55.08
2022-11-18T01:41:54.045Z,55.08
2022-11-18T01:44:59.631Z,58.10
2022-11-18T01:47:39.029Z,56.53
2022-11-18T01:50:07.218Z,57.35
2022-11-18T01:52:35.828Z,49.60
2022-11-18T01:55:18.774Z,53.55
2022-11-18T01:57:49.922Z,55.25
2022-11-18T02:00:17.798Z,57.47
2022-11-18T02:02:45.985Z,53.55
2022-11-18T02:05:14.613Z,55.65
2022-11-18T02:07:43.542Z,51.65
2022-11-18T02:10:25.159Z,48.17
2022-11-18T02:12:54.850Z,50.20
2022-11-18T02:15:55.582Z,50.25
2022-11-18T02:18:49.461Z,52.45
2022-11-18T02:21:55.680Z,55.03
2022-11-18T02:25:16.281Z,69.35
2022-11-18T02:28:16.613Z,52.67
2022-11-18T02:31:20.684Z,54.40
2022-11-18T02:34:08.013Z,55.88
2022-11-18T02:37:17.408Z,50.33
2022-11-18T02:40:26.417Z,53.25
2022-11-18T02:43:17.244Z,52.55
2022-11-18T02:45:50.149Z,54.67
2022-11-18T02:48:19.274Z,55.38
2022-11-18T02:50:50.411Z,51.67
2022-11-18T02:53:21.725Z,49.25
2022-11-18T02:55:50.207Z,48.67
2022-11-18T02:58:20.942Z,50.03
2022-11-18T03:01:01.726Z,52.05
2022-11-18T03:03:36.255Z,51.67
2022-11-18T03:06:24.070Z,54.80
2022-11-18T03:09:05.194Z,54.47
2022-11-18T03:11:50.732Z,57.03
2022-11-18T03:14:34.319Z,49.30
2022-11-18T03:17:14.045Z,51.55
2022-11-18T03:19:59.453Z,55.22
2022-11-18T03:23:09.701Z,54.75
2022-11-18T03:26:05.984Z,56.78
2022-11-18T03:28:40.703Z,55.40
2022-11-18T03:32:03.838Z,59.25
2022-11-18T03:34:45.385Z,58.67
2022-11-18T03:37:16.633Z,57.00
2022-11-18T03:39:53.481Z,58.13
2022-11-18T03:42:43.232Z,55.15
2022-11-18T03:45:47.029Z,58.78
2022-11-18T03:48:32.790Z,52.20
2022-11-18T03:51:10.843Z,55.05
2022-11-18T03:53:45.606Z,57.67
2022-11-18T03:56:24.121Z,57.05
2022-11-18T03:59:21.461Z,57.75
2022-11-18T04:01:58.071Z,55.10
2022-11-18T04:04:26.890Z,63.28
2022-11-18T04:07:17.317Z,56.13
2022-11-18T04:10:04.376Z,54.50
2022-11-18T04:12:38.294Z,52.78
2022-11-18T04:15:06.518Z,49.97
2022-11-18T04:17:33.820Z,55.08
2022-11-18T04:20:01.185Z,54.65
2022-11-18T04:22:28.446Z,53.67
2022-11-18T04:24:55.710Z,50.03
2022-11-18T04:27:22.902Z,58.30
2022-11-18T04:29:50.201Z,50.15
2022-11-18T04:32:17.416Z,52.30
2022-11-18T04:34:44.663Z,50.97
2022-11-18T04:37:11.882Z,55.42
2022-11-18T04:39:39.164Z,51.05
2022-11-18T04:42:06.575Z,50.85
2022-11-18T04:44:34.897Z,53.63
2022-11-18T04:47:05.497Z,58.42
2022-11-18T04:49:35.248Z,57.28
2022-11-18T04:52:03.365Z,56.80
2022-11-18T04:54:30.793Z,55.95
2022-11-18T04:56:58.246Z,54.08
2022-11-18T04:59:29.291Z,57.55
2022-11-18T05:01:59.321Z,56.05
2022-11-18T05:04:31.554Z,59.20
2022-11-18T05:07:01.936Z,56.88
2022-11-18T05:09:31.985Z,57.38
2022-11-18T05:12:19.704Z,63.20
2022-11-18T05:14:50.394Z,54.85
2022-11-18T05:17:19.134Z,52.22
2022-11-18T05:19:46.279Z,51.17
2022-11-18T05:22:15.562Z,58.60
2022-11-18T05:24:42.784Z,57.08
2022-11-18T05:27:10.042Z,59.80
2022-11-18T05:29:37.222Z,61.80
2022-11-18T05:32:05.296Z,64.07
2022-11-18T05:34:32.495Z,61.38
2022-11-18T05:37:00.647Z,65.53
2022-11-18T05:39:27.924Z,68.75
2022-11-18T05:42:13.517Z,64.32
2022-11-18T05:44:40.666Z,68.40
2022-11-18T05:47:08.041Z,72.03
2022-11-18T05:49:35.406Z,70.70
2022-11-18T05:52:02.821Z,77.20
2022-11-18T05:54:30.281Z,72.88
2022-11-18T05:56:57.590Z,71.97
2022-11-18T05:59:24.764Z,83.88
2022-11-18T06:02:08.692Z,87.70
2022-11-18T06:04:47.066Z,84.00
2022-11-18T06:07:53.455Z,79.80
2022-11-18T06:10:32.234Z,90.72
2022-11-18T06:13:05.593Z,83.93
2022-11-18T06:15:41.009Z,89.07
2022-11-18T06:18:19.962Z,87.93
2022-11-18T06:20:47.775Z,81.43
2022-11-18T06:23:15.461Z,90.30
2022-11-18T06:25:43.252Z,93.22
2022-11-18T06:28:14.285Z,87.85
2022-11-18T06:30:43.162Z,82.13
2022-11-18T06:33:10.377Z,81.95
2022-11-18T06:35:37.623Z,81.95
2022-11-18T06:38:04.946Z,75.50
2022-11-18T06:40:34.968Z,78.88
2022-11-18T06:43:29.233Z,75.68
2022-11-18T06:46:23.976Z,74.20
2022-11-18T06:48:51.787Z,63.53
2022-11-18T06:51:19.694Z,67.10
2022-11-18T06:53:47.048Z,61.40
2022-11-18T06:56:18.234Z,67.07
2022-11-18T06:58:45.754Z,63.58
2022-11-18T07:01:29.627Z,58.20
2022-11-18T07:04:00.017Z,54.65
2022-11-18T07:06:34.111Z,64.03
2022-11-18T07:09:06.012Z,61.90
2022-11-18T07:11:34.275Z,58.90
2022-11-18T07:14:01.584Z,57.13
2022-11-18T07:16:29.484Z,58.10
2022-11-18T07:18:57.175Z,55.15
2022-11-18T07:21:28.504Z,54.80
2022-11-18T07:23:56.998Z,58.10
2022-11-18T07:26:24.423Z,50.05
2022-11-18T07:28:51.979Z,52.35
2022-11-18T07:31:21.122Z,53.15
2022-11-18T07:33:49.721Z,53.97
2022-11-18T07:36:22.086Z,57.37
2022-11-18T07:38:50.081Z,56.65
2022-11-18T07:41:24.028Z,54.58
2022-11-18T07:43:59.033Z,59.10
2022-11-18T07:46:34.409Z,63.55
2022-11-18T07:49:06.444Z,60.60
2022-11-18T07:51:38.383Z,57.58
2022-11-18T07:54:16.993Z,53.88
2022-11-18T07:56:44.641Z,55.22
2022-11-18T07:59:12.089Z,52.90
2022-11-18T08:01:39.423Z,55.92
2022-11-18T08:04:11.677Z,56.35
2022-11-18T08:06:39.920Z,55.50
2022-11-18T08:09:08.592Z,52.45
2022-11-18T08:11:36.628Z,57.53
2022-11-18T08:14:04.274Z,55.20
2022-11-18T08:16:31.545Z,51.83
2022-11-18T08:19:00.941Z,48.08
2022-11-18T08:21:28.448Z,51.35
2022-11-18T08:23:58.337Z,49.67
2022-11-18T08:26:27.364Z,52.78
2022-11-18T08:28:55.147Z,50.47
2022-11-18T08:31:30.409Z,52.30
2022-11-18T08:34:03.006Z,49.90
2022-11-18T08:36:35.808Z,60.08
2022-11-18T08:39:07.954Z,51.03
2022-11-18T08:41:42.797Z,49.15
2022-11-18T08:44:16.678Z,55.60
2022-11-18T08:46:45.744Z,56.53
2022-11-18T08:49:12.989Z,58.97
2022-11-18T08:51:40.140Z,59.20
2022-11-18T08:54:07.344Z,61.30
2022-11-18T08:56:34.574Z,70.22
2022-11-18T08:59:01.900Z,64.18
2022-11-18T09:01:29.205Z,67.63
2022-11-18T09:03:57.681Z,68.43
2022-11-18T09:06:25.329Z,66.25
2022-11-18T09:08:54.136Z,66.28
2022-11-18T09:11:27.498Z,60.00
2022-11-18T09:16:45.505Z,59.88
2022-11-18T09:19:45.030Z,61.88
2022-11-18T09:22:00.186Z,52.88
2022-11-18T09:24:27.419Z,57.05
2022-11-18T09:26:54.673Z,59.08
2022-11-18T09:29:25.858Z,57.70
2022-11-18T09:31:54.734Z,58.53
2022-11-18T09:34:23.402Z,53.20
2022-11-18T09:36:51.253Z,45.15
2022-11-18T09:39:18.848Z,47.30
2022-11-18T09:42:30.932Z,46.63
2022-11-18T09:45:38.876Z,46.55
2022-11-18T09:49:03.523Z,42.58
2022-11-18T09:51:39.252Z,47.40
2022-11-18T09:56:41.615Z,41.65
2022-11-18T09:59:14.215Z,42.28
2022-11-18T10:01:42.750Z,41.60
2022-11-18T10:04:24.123Z,43.15
2022-11-18T10:06:51.366Z,35.85
2022-11-18T10:09:41.353Z,41.80
2022-11-18T10:12:41.993Z,41.67
2022-11-18T10:15:44.410Z,40.67
2022-11-18T10:19:01.157Z,32.85
2022-11-18T10:22:18.256Z,30.95
2022-11-18T10:24:55.922Z,32.30
2022-11-18T10:27:35.453Z,30.27
2022-11-18T10:30:02.954Z,30.70
2022-11-18T10:32:30.175Z,33.40
2022-11-18T10:34:59.456Z,31.77
2022-11-18T10:38:05.797Z,29.45
2022-11-18T10:40:28.394Z,32.40
2022-11-18T10:42:56.071Z,27.27
2022-11-18T10:45:23.056Z,29.55
2022-11-18T10:48:28.593Z,28.05
2022-11-18T10:50:56.228Z,30.77
2022-11-18T10:53:37.031Z,34.58
2022-11-18T10:56:11.937Z,29.52
2022-11-18T10:58:50.276Z,27.90
2022-11-18T11:01:26.669Z,24.63
2022-11-18T11:04:22.506Z,25.92
2022-11-18T11:06:50.011Z,25.08
2022-11-18T11:09:30.754Z,25.58
2022-11-18T11:12:13.850Z,25.90
2022-11-18T11:14:54.534Z,26.13
2022-11-18T11:17:38.794Z,24.40
2022-11-18T11:20:26.655Z,26.45
2022-11-18T11:22:55.735Z,23.90
2022-11-18T11:29:12.909Z,23.52
2022-11-18T11:31:59.944Z,27.90
2022-11-18T11:35:27.313Z,24.73
2022-11-18T11:38:23.014Z,21.35
2022-11-18T11:41:23.308Z,26.65
2022-11-18T11:44:18.399Z,23.63
2022-11-18T11:47:49.964Z,20.92
2022-11-18T11:51:03.262Z,22.67
2022-11-18T11:54:38.155Z,26.52
2022-11-18T11:57:39.440Z,25.10
2022-11-18T12:00:14.412Z,22.92
2022-11-18T12:03:01.591Z,24.42
2022-11-18T12:05:39.429Z,22.30
2022-11-18T12:08:31.172Z,27.42
2022-11-18T12:11:31.770Z,23.77
2022-11-18T12:14:28.423Z,26.88
2022-11-18T12:17:13.263Z,19.63
2022-11-18T12:19:40.558Z,18.33
2022-11-18T12:22:07.803Z,22.13
2022-11-18T12:24:42.407Z,22.58
2022-11-18T12:27:39.828Z,23.25
2022-11-18T12:30:18.865Z,24.48
2022-11-18T12:32:46.873Z,22.50
2022-11-18T12:35:14.013Z,20.65
2022-11-18T12:37:53.198Z,29.83
2022-11-18T12:40:50.639Z,21.25
2022-11-18T12:43:46.000Z,22.42
2022-11-18T12:46:40.121Z,23.30
2022-11-18T12:49:23.268Z,22.48
2022-11-18T12:51:52.568Z,26.83
2022-11-18T12:54:45.329Z,23.83
2022-11-18T12:57:31.077Z,24.08
2022-11-18T13:00:17.711Z,24.05
2022-11-18T13:02:57.174Z,24.70
2022-11-18T13:05:31.080Z,24.77
2022-11-18T13:08:14.182Z,23.55
2022-11-18T13:11:17.581Z,27.40
2022-11-18T13:13:46.219Z,21.33
2022-11-18T13:16:43.234Z,23.38
2022-11-18T13:19:21.551Z,25.02
2022-11-18T13:22:15.222Z,23.92
2022-11-18T13:24:53.024Z,21.90
2022-11-18T13:28:05.662Z,23.58
2022-11-18T13:30:36.355Z,21.30
2022-11-18T13:33:03.739Z,22.70
2022-11-18T13:35:30.963Z,22.63
2022-11-18T13:38:02.390Z,23.38
2022-11-18T13:41:04.151Z,23.30
2022-11-18T13:43:33.503Z,24.55
2022-11-18T13:46:14.294Z,24.85
2022-11-18T13:48:54.854Z,23.48
2022-11-18T13:51:23.381Z,22.30
2022-11-18T13:53:50.852Z,21.38
2022-11-18T13:56:34.934Z,21.10
2022-11-18T13:59:16.743Z,24.38
2022-11-18T14:01:47.304Z,24.08
2022-11-18T14:04:31.679Z,21.92
2022-11-18T14:07:32.642Z,19.02
2022-11-18T14:10:08.500Z,18.83
2022-11-18T14:12:36.915Z,22.55
2022-11-18T14:15:37.897Z,20.95
2022-11-18T14:18:32.901Z,20.20
2022-11-18T14:21:02.835Z,19.40
2022-11-18T14:23:36.492Z,21.58
2022-11-18T14:26:06.674Z,19.33
2022-11-18T14:28:38.202Z,23.70
2022-11-18T14:31:25.660Z,21.90
2022-11-18T14:34:24.136Z,19.58
2022-11-18T14:36:53.547Z,25.60
2022-11-18T14:39:27.489Z,23.38
2022-11-18T14:41:59.820Z,20.45
2022-11-18T14:44:28.670Z,25.25
2022-11-18T14:47:27.695Z,22.27
2022-11-18T14:49:54.962Z,23.27
2022-11-18T14:52:22.181Z,22.35
2022-11-18T14:54:49.391Z,23.75
2022-11-18T14:57:18.902Z,21.83
2022-11-18T14:59:46.208Z,24.55
2022-11-18T15:02:17.380Z,21.95
2022-11-18T15:04:44.977Z,19.33
2022-11-18T15:07:23.125Z,22.27
2022-11-18T15:09:51.231Z,20.90
2022-11-18T15:12:18.420Z,23.38
2022-11-18T15:14:45.638Z,23.35
2022-11-18T15:17:13.643Z,19.23
2022-11-18T15:19:41.575Z,25.20
2022-11-18T15:22:09.487Z,28.95
2022-11-18T15:24:36.740Z,30.55
2022-11-18T15:27:05.256Z,29.35
2022-11-18T15:29:32.622Z,29.60
2022-11-18T15:32:00.073Z,29.48
2022-11-18T15:34:27.343Z,26.77
2022-11-18T15:36:54.476Z,28.20
2022-11-18T15:39:21.699Z,24.30
2022-11-18T15:41:49.188Z,26.88
2022-11-18T15:44:16.935Z,24.08
2022-11-18T15:46:48.119Z,27.75
2022-11-18T15:49:17.466Z,22.10
2022-11-18T15:51:44.766Z,27.15
2022-11-18T15:54:11.981Z,26.05
2022-11-18T15:56:39.866Z,27.13
2022-11-18T15:59:13.756Z,27.95
2022-11-18T16:01:49.221Z,31.00
2022-11-18T16:04:19.284Z,29.83
2022-11-18T16:06:47.686Z,28.35
2022-11-18T16:09:17.905Z,35.90
2022-11-18T16:12:04.271Z,32.50
2022-11-18T16:16:58.645Z,36.15
2022-11-18T16:19:27.184Z,32.35
2022-11-18T16:21:56.991Z,32.92
2022-11-18T16:24:29.670Z,36.28
2022-11-18T16:26:57.761Z,34.40
2022-11-18T16:29:25.346Z,34.53
2022-11-18T16:31:54.151Z,39.17
2022-11-18T16:34:27.966Z,30.92
2022-11-18T16:37:01.111Z,35.08
2022-11-18T16:39:29.345Z,35.40
2022-11-18T16:42:08.361Z,31.73
2022-11-18T16:44:37.524Z,35.70
2022-11-18T16:47:13.934Z,34.85
2022-11-18T16:49:43.032Z,34.88
2022-11-18T16:52:10.471Z,34.42
2022-11-18T16:54:44.293Z,38.10
2022-11-18T16:57:13.151Z,34.35
2022-11-18T16:59:40.505Z,34.80
2022-11-18T17:02:11.506Z,40.03
2022-11-18T17:04:38.766Z,38.38
2022-11-18T17:07:06.583Z,35.00
2022-11-18T17:09:33.925Z,40.22
2022-11-18T17:12:03.149Z,41.60
2022-11-18T17:14:30.887Z,40.65
2022-11-18T17:16:58.742Z,39.08
2022-11-18T17:19:26.556Z,34.40
2022-11-18T17:21:54.091Z,36.30
2022-11-18T17:24:24.302Z,35.42
2022-11-18T17:26:52.774Z,33.20
2022-11-18T17:29:20.843Z,34.33
2022-11-18T17:31:48.336Z,33.45
2022-11-18T17:34:16.479Z,34.47
2022-11-18T17:36:44.130Z,31.25
2022-11-18T17:39:13.270Z,28.85
2022-11-18T17:41:59.327Z,33.30
2022-11-18T17:44:29.127Z,33.05
2022-11-18T17:46:56.653Z,34.58
2022-11-18T17:49:23.971Z,33.30
2022-11-18T17:51:51.673Z,31.23
2022-11-18T17:54:20.718Z,31.85
2022-11-18T17:56:49.823Z,26.65
2022-11-18T17:59:17.607Z,29.42
2022-11-18T18:01:46.154Z,32.45
2022-11-18T18:04:14.592Z,32.72
2022-11-18T18:06:41.804Z,27.25
2022-11-18T18:09:08.973Z,30.15
2022-11-18T18:11:36.247Z,30.23
2022-11-18T18:14:12.786Z,29.00
2022-11-18T18:16:50.888Z,30.67
2022-11-18T18:19:21.874Z,29.35
2022-11-18T18:21:49.284Z,28.73
2022-11-18T18:24:19.506Z,29.08
2022-11-18T18:26:47.404Z,25.90
2022-11-18T18:29:14.672Z,27.23
2022-11-18T18:31:41.945Z,29.30
2022-11-18T18:34:09.258Z,28.02
2022-11-18T18:36:36.522Z,26.13
2022-11-18T18:39:04.429Z,27.58
2022-11-18T18:41:32.493Z,26.70
2022-11-18T18:44:00.635Z,26.50
2022-11-18T18:46:29.396Z,25.38
2022-11-18T18:49:20.371Z,24.85
2022-11-18T18:51:49.399Z,29.65
2022-11-18T18:54:20.417Z,24.90
2022-11-18T18:56:47.952Z,22.15
2022-11-18T18:59:15.147Z,24.13
2022-11-18T19:01:42.772Z,23.23
2022-11-18T19:04:13.498Z,19.60
2022-11-18T19:06:53.638Z,18.58
2022-11-18T19:09:25.618Z,17.05
2022-11-18T19:12:11.978Z,19.80
2022-11-18T19:14:39.676Z,18.52
2022-11-18T19:17:11.251Z,22.98
2022-11-18T19:20:00.092Z,24.67
2022-11-18T19:22:31.816Z,26.45
2022-11-18T19:25:00.565Z,24.60
2022-11-18T19:27:28.768Z,21.25
2022-11-18T19:29:56.121Z,35.17
2022-11-18T19:32:23.472Z,29.77
2022-11-18T19:34:50.689Z,30.45
2022-11-18T19:37:17.889Z,26.58
2022-11-18T19:39:45.193Z,32.80
2022-11-18T19:42:12.486Z,24.90
2022-11-18T19:44:39.956Z,27.48
2022-11-18T19:47:07.209Z,25.05
2022-11-18T19:49:34.422Z,27.80
2022-11-18T19:52:02.463Z,28.23
2022-11-18T19:54:29.656Z,27.88
2022-11-18T19:56:57.389Z,33.25
2022-11-18T19:59:24.554Z,30.40
2022-11-18T20:01:51.964Z,32.22
2022-11-18T20:04:19.209Z,24.65
2022-11-18T20:06:46.636Z,26.70
2022-11-18T20:09:14.142Z,24.85
2022-11-18T20:11:43.510Z,23.75
2022-11-18T20:14:12.452Z,24.02
2022-11-18T20:16:40.533Z,28.25
2022-11-18T20:19:10.773Z,28.13
2022-11-18T20:21:39.276Z,27.30
2022-11-18T20:24:08.269Z,28.88
2022-11-18T20:26:38.715Z,28.73
2022-11-18T20:29:08.089Z,26.92
2022-11-18T20:31:37.189Z,23.08
2022-11-18T20:34:06.155Z,23.55
2022-11-18T20:36:36.415Z,17.13
2022-11-18T20:39:14.915Z,19.35
2022-11-18T20:41:43.269Z,17.88
2022-11-18T20:44:10.436Z,19.17
2022-11-18T20:46:37.657Z,18.85
2022-11-18T20:49:04.792Z,14.47
2022-11-18T20:51:32.423Z,14.50
2022-11-18T20:54:01.097Z,16.27
2022-11-18T20:56:28.457Z,14.85
2022-11-18T20:58:58.539Z,11.75
2022-11-18T21:01:29.492Z,11.55
2022-11-18T21:04:00.440Z,14.32
2022-11-18T21:06:31.077Z,13.30
2022-11-18T21:09:05.461Z,12.18
2022-11-18T21:11:36.940Z,14.18
2022-11-18T21:14:24.903Z,13.20
2022-11-18T21:17:01.770Z,16.25
2022-11-18T21:19:29.701Z,15.98
2022-11-18T21:21:57.351Z,14.82
2022-11-18T21:24:29.535Z,12.00
2022-11-18T21:26:58.040Z,11.95
2022-11-18T21:29:29.867Z,12.90
2022-11-18T21:32:00.467Z,16.13
2022-11-18T21:34:28.307Z,11.73
2022-11-18T21:36:55.623Z,13.27
2022-11-18T21:39:24.895Z,13.93
2022-11-18T21:41:56.218Z,13.93
2022-11-18T21:44:25.701Z,14.80
2022-11-18T21:46:52.987Z,13.18
2022-11-18T21:49:20.469Z,17.55
2022-11-18T21:51:47.839Z,15.45
2022-11-18T21:54:15.911Z,16.83
2022-11-18T21:56:43.391Z,13.77
2022-11-18T21:59:10.538Z,17.98
2022-11-18T22:01:37.735Z,19.50
2022-11-18T22:04:05.961Z,15.23
2022-11-18T22:06:34.527Z,13.52
2022-11-18T22:09:04.000Z,20.52
2022-11-18T22:11:31.569Z,14.75
2022-11-18T22:13:58.949Z,14.02
2022-11-18T22:16:26.978Z,17.70
2022-11-18T22:19:01.375Z,17.40
2022-11-18T22:21:32.322Z,15.70
2022-11-18T22:24:01.186Z,14.25
2022-11-18T22:26:29.402Z,20.65
2022-11-18T22:28:58.246Z,17.38
2022-11-18T22:31:28.424Z,13.40
2022-11-18T22:33:57.333Z,14.35
2022-11-18T22:36:27.398Z,10.77
2022-11-18T22:38:55.955Z,12.32
2022-11-18T22:41:45.403Z,14.73
2022-11-18T22:44:16.514Z,12.23
2022-11-18T22:46:45.683Z,10.57
2022-11-18T22:49:13.694Z,11.07
2022-11-18T22:51:41.447Z,9.48
2022-11-18T22:56:57.275Z,16.27
2022-11-18T22:59:24.978Z,10.05
2022-11-18T23:01:52.804Z,13.55
2022-11-18T23:04:20.487Z,11.50
2022-11-18T23:06:49.477Z,9.80
2022-11-18T23:09:17.242Z,9.60
2022-11-18T23:12:03.643Z,7.88
2022-11-18T23:17:00.032Z,10.20
2022-11-18T23:19:27.239Z,12.07
2022-11-18T23:21:54.387Z,8.15
2022-11-18T23:24:21.844Z,10.93
2022-11-18T23:26:49.176Z,11.80
2022-11-18T23:29:17.035Z,8.13
2022-11-18T23:31:45.228Z,11.90
2022-11-18T23:34:15.647Z,12.30
2022-11-18T23:36:43.583Z,14.65
2022-11-18T23:39:11.187Z,12.77
2022-11-18T23:41:39.773Z,13.10
2022-11-18T23:44:07.191Z,15.40
2022-11-18T23:46:34.578Z,13.95
2022-11-18T23:49:01.829Z,13.82
2022-11-18T23:51:28.952Z,13.68
2022-11-18T23:53:57.417Z,13.27
2022-11-18T23:56:27.523Z,19.88
2022-11-18T23:58:56.875Z,14.70
